Time;durP1;ratioP1;P1;durP2;ratioP2;P2;SDS_P1;SDS_P2;PMS_P1;PMS_P2;Temp;Humidity;BMP_temperature;BMP_pressure;BME280_temperature;BME280_humidity;BME280_pressure;Samples;Min_cycle;Max_cycle;Signal;HPM_P1;HPM_P2
2022/05/02 00:00:44;;;;;;;19.80;14.53;;;8.90;99.90;;;;;;5067445;28;20233;-72
2022/05/02 00:03:11;;;;;;;19.13;14.40;;;8.80;99.90;;;;;;5070167;28;20490;-72
2022/05/02 00:05:37;;;;;;;19.70;15.23;;;8.80;99.90;;;;;;5068246;28;20454;-71
2022/05/02 00:08:03;;;;;;;21.13;14.50;;;8.80;99.90;;;;;;5069843;28;20430;-73
2022/05/02 00:10:29;;;;;;;20.27;13.80;;;8.80;99.90;;;;;;5068221;28;20814;-73
2022/05/02 00:12:55;;;;;;;16.90;12.97;;;8.80;99.90;;;;;;5069360;28;20768;-72
2022/05/02 00:15:21;;;;;;;18.20;14.03;;;8.80;99.90;;;;;;5068129;28;20789;-72
2022/05/02 00:17:59;;;;;;;19.63;13.87;;;8.80;99.90;;;;;;5067223;28;20454;-73
2022/05/02 00:20:30;;;;;;;19.00;14.43;;;8.80;99.90;;;;;;5069337;28;20289;-72
2022/05/02 00:22:57;;;;;;;22.87;13.80;;;8.80;99.90;;;;;;5068190;28;20869;-73
2022/05/02 00:25:23;;;;;;;21.40;15.60;;;8.70;99.90;;;;;;5068854;28;20987;-72
2022/05/02 00:27:49;;;;;;;20.63;15.60;;;8.70;99.90;;;;;;5068106;28;20884;-72
2022/05/02 00:30:15;;;;;;;27.20;17.60;;;8.70;99.90;;;;;;5068141;28;20427;-72
2022/05/02 00:32:41;;;;;;;24.60;16.90;;;8.70;99.90;;;;;;5067327;28;20573;-71
2022/05/02 00:35:08;;;;;;;22.50;16.30;;;8.70;99.90;;;;;;5068253;28;20450;-72
2022/05/02 00:37:34;;;;;;;25.30;15.43;;;8.70;99.90;;;;;;5066777;28;20481;-72
2022/05/02 00:40:00;;;;;;;21.70;16.63;;;8.80;99.90;;;;;;5067833;28;20531;-72
2022/05/02 00:42:25;;;;;;;21.63;16.67;;;8.80;99.90;;;;;;5067526;28;20546;-72
2022/05/02 00:44:51;;;;;;;23.50;15.13;;;8.70;99.90;;;;;;5063902;28;20203;-72
2022/05/02 00:47:20;;;;;;;22.17;14.20;;;8.70;99.90;;;;;;5054375;28;20184;-72
2022/05/02 00:49:50;;;;;;;24.93;14.83;;;8.60;99.90;;;;;;5067569;28;20241;-72
2022/05/02 00:52:16;;;;;;;17.53;14.40;;;8.70;99.90;;;;;;5067475;28;20520;-72
2022/05/02 00:54:43;;;;;;;17.03;13.20;;;8.60;99.90;;;;;;5068911;28;20441;-72
2022/05/02 00:57:12;;;;;;;19.30;13.60;;;8.70;99.90;;;;;;5066849;28;20453;-72
2022/05/02 00:59:38;;;;;;;23.30;14.30;;;8.70;99.90;;;;;;5067462;28;20426;-72
2022/05/02 01:02:05;;;;;;;18.17;14.93;;;8.70;99.90;;;;;;5066741;28;20434;-72
2022/05/02 01:04:31;;;;;;;19.70;13.80;;;8.80;99.90;;;;;;5068847;28;20203;-72
2022/05/02 01:07:09;;;;;;;18.57;13.60;;;8.90;99.90;;;;;;5067404;28;20434;-72
2022/05/02 01:09:38;;;;;;;18.77;13.50;;;8.90;99.90;;;;;;5068060;28;20183;-72
2022/05/02 01:12:05;;;;;;;16.33;12.90;;;8.90;99.90;;;;;;5068128;28;20433;-73
2022/05/02 01:14:33;;;;;;;20.47;12.67;;;9.00;99.90;;;;;;5067502;28;20467;-72
2022/05/02 01:16:59;;;;;;;17.33;13.30;;;9.00;99.90;;;;;;5065448;28;20763;-72
2022/05/02 01:19:24;;;;;;;16.67;12.70;;;9.00;99.90;;;;;;5066738;28;20483;-72
2022/05/02 01:21:50;;;;;;;15.90;12.33;;;9.00;99.90;;;;;;5067772;28;20542;-72
2022/05/02 01:24:15;;;;;;;20.30;12.73;;;9.00;99.90;;;;;;5066501;28;20209;-72
2022/05/02 01:26:41;;;;;;;17.70;13.40;;;8.90;99.90;;;;;;5065184;28;20203;-72
2022/05/02 01:29:07;;;;;;;20.10;13.03;;;8.80;99.90;;;;;;5060357;28;20684;-72
2022/05/02 01:31:33;;;;;;;15.77;12.80;;;8.70;99.90;;;;;;5061362;28;20599;-72
2022/05/02 01:34:00;;;;;;;19.13;14.10;;;8.60;99.90;;;;;;5066451;28;20477;-72
2022/05/02 01:36:25;;;;;;;21.60;13.80;;;8.60;99.90;;;;;;5066981;28;20691;-73
2022/05/02 01:38:51;;;;;;;21.43;13.60;;;8.50;99.90;;;;;;5068073;28;20447;-72
2022/05/02 01:41:17;;;;;;;20.23;13.20;;;8.40;99.90;;;;;;5066397;28;20204;-73
2022/05/02 01:43:43;;;;;;;16.43;13.63;;;8.40;99.90;;;;;;5066721;28;20521;-73
2022/05/02 01:46:11;;;;;;;20.10;13.53;;;8.40;99.90;;;;;;5064610;28;20527;-72
2022/05/02 01:48:36;;;;;;;19.77;13.70;;;8.30;99.90;;;;;;5066868;28;20559;-73
2022/05/02 01:51:02;;;;;;;18.97;14.70;;;8.30;99.90;;;;;;5064559;28;20442;-73
2022/05/02 01:53:28;;;;;;;20.33;14.07;;;8.20;99.90;;;;;;5061002;28;20184;-72
2022/05/02 01:55:54;;;;;;;18.57;13.73;;;8.20;99.90;;;;;;5066913;28;20425;-72
2022/05/02 01:58:20;;;;;;;17.20;13.20;;;8.20;99.90;;;;;;5066911;28;20230;-73
2022/05/02 02:00:45;;;;;;;21.30;13.53;;;8.20;99.90;;;;;;5065734;28;20176;-72
2022/05/02 02:03:11;;;;;;;23.23;14.30;;;8.20;99.90;;;;;;5066941;28;20866;-72
2022/05/02 02:05:49;;;;;;;16.70;14.03;;;8.20;99.90;;;;;;5066598;28;20208;-72
2022/05/02 02:08:26;;;;;;;18.90;14.10;;;8.20;99.90;;;;;;5067959;28;20244;-72
2022/05/02 02:10:53;;;;;;;24.67;13.93;;;8.20;99.90;;;;;;5065841;28;20579;-72
2022/05/02 02:13:19;;;;;;;18.17;13.87;;;8.20;99.90;;;;;;5066659;28;20901;-73
2022/05/02 02:15:45;;;;;;;20.13;15.07;;;8.10;99.90;;;;;;5065968;28;20510;-72
2022/05/02 02:18:12;;;;;;;18.40;14.17;;;8.10;99.90;;;;;;5065378;28;20226;-72
2022/05/02 02:20:41;;;;;;;18.50;14.63;;;8.00;99.90;;;;;;5067339;28;20418;-72
2022/05/02 02:23:06;;;;;;;22.13;15.23;;;8.00;99.90;;;;;;5066868;28;20839;-73
2022/05/02 02:25:32;;;;;;;22.60;15.00;;;8.00;99.90;;;;;;5067138;28;20438;-72
2022/05/02 02:28:00;;;;;;;21.30;15.40;;;8.00;99.90;;;;;;5066789;28;20704;-73
2022/05/02 02:30:26;;;;;;;20.07;15.00;;;7.90;99.90;;;;;;5062028;28;20180;-72
2022/05/02 02:32:52;;;;;;;19.07;14.60;;;7.90;99.90;;;;;;5070698;28;20495;-72
2022/05/02 02:35:20;;;;;;;20.80;15.60;;;7.90;99.90;;;;;;5071072;28;20964;-71
2022/05/02 02:37:46;;;;;;;23.60;15.70;;;7.90;99.90;;;;;;5071053;28;20241;-73
2022/05/02 02:40:12;;;;;;;19.97;15.47;;;7.90;99.90;;;;;;5069560;28;20414;-72
2022/05/02 02:42:38;;;;;;;22.63;16.60;;;7.80;99.90;;;;;;5069548;28;20425;-72
2022/05/02 02:45:04;;;;;;;23.00;17.20;;;7.80;99.90;;;;;;5070154;28;20355;-73
2022/05/02 02:47:29;;;;;;;21.10;15.50;;;7.80;99.90;;;;;;5069831;28;21009;-72
2022/05/02 02:49:55;;;;;;;24.07;15.03;;;7.70;99.90;;;;;;5070883;28;20658;-73
2022/05/02 02:52:20;;;;;;;22.30;15.50;;;7.70;99.90;;;;;;5070312;28;20176;-72
2022/05/02 02:54:46;;;;;;;25.10;16.10;;;7.60;99.90;;;;;;5069463;28;20238;-73
2022/05/02 02:57:11;;;;;;;22.73;15.90;;;7.50;99.90;;;;;;5068884;28;20221;-71
2022/05/02 02:59:37;;;;;;;19.20;15.23;;;7.70;99.90;;;;;;5070259;28;20250;-72
2022/05/02 03:02:05;;;;;;;20.10;14.67;;;7.50;99.90;;;;;;5069216;28;20256;-72
2022/05/02 03:07:15;;;;;;;22.80;14.73;;;7.50;99.90;;;;;;5066574;28;20796;-73
2022/05/02 03:09:41;;;;;;;28.20;17.53;;;7.50;99.90;;;;;;5069268;28;20426;-72
2022/05/02 03:12:07;;;;;;;20.73;16.27;;;7.50;99.90;;;;;;5069990;28;20188;-73
2022/05/02 03:14:33;;;;;;;21.33;15.40;;;7.40;99.90;;;;;;5069502;28;20310;-72
2022/05/02 03:16:58;;;;;;;20.40;16.07;;;7.70;99.90;;;;;;5069515;28;20450;-73
2022/05/02 03:19:24;;;;;;;19.80;15.10;;;7.30;99.90;;;;;;5070010;28;20362;-72
2022/05/02 03:21:49;;;;;;;20.13;14.83;;;7.40;99.90;;;;;;5069957;28;20557;-73
2022/05/02 03:24:15;;;;;;;23.33;15.50;;;7.30;99.90;;;;;;5069135;28;20196;-72
2022/05/02 03:26:40;;;;;;;26.10;16.43;;;7.30;99.90;;;;;;5068586;28;20179;-73
2022/05/02 03:29:06;;;;;;;26.83;17.83;;;7.20;99.90;;;;;;5069149;28;20208;-72
2022/05/02 03:31:31;;;;;;;23.40;18.03;;;7.20;99.90;;;;;;5068004;28;20857;-72
2022/05/02 03:33:57;;;;;;;26.37;18.53;;;7.10;99.90;;;;;;5070302;28;20205;-72
2022/05/02 03:36:23;;;;;;;26.10;18.50;;;7.50;99.90;;;;;;5068956;28;20191;-72
2022/05/02 03:38:48;;;;;;;26.53;18.40;;;7.20;99.90;;;;;;5069864;28;20218;-72
2022/05/02 03:41:14;;;;;;;28.10;18.70;;;7.20;99.90;;;;;;5066898;28;20615;-72
2022/05/02 03:43:39;;;;;;;25.33;18.93;;;7.10;99.90;;;;;;5070199;28;20203;-72
2022/05/02 03:46:05;;;;;;;29.53;18.50;;;7.10;99.90;;;;;;5066770;28;20175;-73
2022/05/02 03:48:30;;;;;;;33.07;19.50;;;7.20;99.90;;;;;;5063532;28;20173;-73
2022/05/02 03:50:56;;;;;;;27.60;19.83;;;7.40;99.90;;;;;;5066474;28;20603;-72
2022/05/02 03:53:21;;;;;;;26.47;19.40;;;7.30;99.90;;;;;;5068255;28;20545;-72
2022/05/02 03:55:47;;;;;;;27.80;18.90;;;7.30;99.90;;;;;;5068842;28;20215;-73
2022/05/02 03:58:13;;;;;;;26.67;19.43;;;7.30;99.90;;;;;;5068454;28;20212;-72
2022/05/02 04:00:39;;;;;;;28.67;20.23;;;7.30;99.90;;;;;;5067042;28;20556;-72
2022/05/02 04:03:05;;;;;;;29.47;19.90;;;7.10;99.90;;;;;;5069474;28;20506;-72
2022/05/02 04:05:31;;;;;;;26.47;18.90;;;7.20;99.90;;;;;;5068509;28;20269;-72
2022/05/02 04:07:56;;;;;;;29.43;20.93;;;7.20;99.90;;;;;;5069145;28;20700;-72
2022/05/02 04:10:21;;;;;;;26.20;19.57;;;7.30;99.90;;;;;;5067219;28;20264;-71
2022/05/02 04:12:47;;;;;;;33.20;22.53;;;7.10;99.90;;;;;;5068559;28;20714;-72
2022/05/02 04:15:13;;;;;;;28.60;21.00;;;7.10;99.90;;;;;;5067610;28;20269;-72
2022/05/02 04:17:40;;;;;;;29.60;20.17;;;7.20;99.90;;;;;;5066110;28;20206;-73
2022/05/02 04:20:07;;;;;;;31.33;20.33;;;7.20;99.90;;;;;;5069027;28;20409;-72
2022/05/02 04:22:33;;;;;;;28.80;20.57;;;7.30;99.90;;;;;;5067677;28;20542;-73
2022/05/02 04:24:59;;;;;;;28.77;20.67;;;7.30;99.90;;;;;;5068492;28;20437;-73
2022/05/02 04:27:24;;;;;;;24.30;19.10;;;7.40;99.90;;;;;;5068673;28;20442;-72
2022/05/02 04:29:50;;;;;;;24.87;18.80;;;7.50;99.90;;;;;;5060667;28;20675;-73
2022/05/02 04:32:16;;;;;;;24.13;18.10;;;7.60;99.90;;;;;;5066485;28;20180;-72
2022/05/02 04:34:41;;;;;;;25.00;18.60;;;7.70;99.90;;;;;;5068118;28;20678;-72
2022/05/02 04:37:10;;;;;;;29.87;20.90;;;7.80;99.90;;;;;;5067358;28;20238;-72
2022/05/02 04:39:36;;;;;;;29.33;20.77;;;7.80;99.90;;;;;;5066319;28;20181;-71
2022/05/02 04:42:02;;;;;;;34.20;22.63;;;7.90;99.90;;;;;;5067452;28;20544;-72
2022/05/02 04:44:27;;;;;;;31.87;20.57;;;8.00;99.90;;;;;;5065904;28;20578;-72
2022/05/02 04:46:53;;;;;;;30.87;22.37;;;8.00;99.90;;;;;;5067493;28;20471;-72
2022/05/02 04:49:18;;;;;;;32.90;21.43;;;8.00;99.90;;;;;;5067523;28;20199;-71
2022/05/02 04:51:44;;;;;;;34.27;21.73;;;8.00;99.90;;;;;;5065353;28;20196;-73
2022/05/02 04:54:09;;;;;;;31.07;21.00;;;7.90;99.90;;;;;;5066696;28;20192;-72
2022/05/02 04:56:35;;;;;;;32.23;22.37;;;7.90;99.90;;;;;;5068453;28;20545;-73
2022/05/02 04:59:00;;;;;;;30.47;20.07;;;8.00;99.90;;;;;;5067833;28;20321;-73
2022/05/02 05:01:26;;;;;;;30.90;19.80;;;8.10;99.90;;;;;;5066726;28;20172;-73
2022/05/02 05:03:52;;;;;;;31.30;19.63;;;8.30;99.90;;;;;;5066622;28;20229;-72
2022/05/02 05:06:17;;;;;;;25.37;19.07;;;8.70;99.90;;;;;;5067020;28;20177;-72
2022/05/02 05:08:43;;;;;;;29.57;19.60;;;8.50;99.90;;;;;;5068241;28;20558;-73
2022/05/02 05:11:17;;;;;;;29.40;19.50;;;8.60;99.90;;;;;;5065515;28;20176;-72
2022/05/02 05:17:03;;;;;;;32.00;21.10;;;8.80;99.90;;;;;;5066130;28;20922;-73
2022/05/02 05:19:50;;;;;;;47.90;22.03;;;8.90;99.90;;;;;;5067754;28;20418;-72
2022/05/02 05:22:48;;;;;;;37.00;23.57;;;8.90;99.90;;;;;;5064493;28;20411;-73
2022/05/02 05:25:39;;;;;;;31.47;21.83;;;8.90;99.90;;;;;;5065257;28;20453;-72
2022/05/02 05:28:42;;;;;;;33.47;21.23;;;9.00;99.90;;;;;;5066793;28;20476;-72
2022/05/02 05:31:22;;;;;;;29.23;21.33;;;9.00;99.90;;;;;;5064314;28;20438;-72
2022/05/02 05:34:03;;;;;;;30.70;21.77;;;9.10;99.90;;;;;;5067024;28;20492;-73
2022/05/02 05:36:43;;;;;;;35.57;21.67;;;9.00;99.90;;;;;;5064702;28;20481;-73
2022/05/02 05:39:51;;;;;;;33.50;21.20;;;9.10;99.90;;;;;;5059384;28;20471;-72
2022/05/02 05:42:36;;;;;;;34.53;21.93;;;9.10;99.90;;;;;;5058232;28;20435;-73
2022/05/02 05:45:04;;;;;;;42.73;21.77;;;9.20;99.90;;;;;;5058406;28;20806;-73
2022/05/02 05:47:43;;;;;;;31.17;22.30;;;9.20;99.90;;;;;;5063249;28;20537;-72
2022/05/02 05:50:30;;;;;;;34.50;21.47;;;9.20;99.90;;;;;;5075280;28;20430;-72
2022/05/02 05:52:58;;;;;;;44.50;21.83;;;9.20;99.90;;;;;;5061838;28;20430;-73
2022/05/02 05:56:01;;;;;;;54.83;21.77;;;9.20;99.90;;;;;;5061994;28;20434;-72
2022/05/02 05:58:51;;;;;;;36.13;20.80;;;9.20;99.90;;;;;;5065374;28;20912;-73
2022/05/02 06:01:35;;;;;;;38.85;25.85;;;9.30;99.90;;;;;;5064443;28;20411;-73
2022/05/02 06:04:07;;;;;;;39.53;21.90;;;9.50;99.90;;;;;;5048585;28;20200;-73
2022/05/02 06:06:34;;;;;;;27.70;20.80;;;9.60;99.90;;;;;;5065923;28;20496;-72
2022/05/02 06:09:01;;;;;;;27.00;20.50;;;9.60;99.90;;;;;;5066411;28;20440;-73
2022/05/02 06:11:28;;;;;;;30.23;20.90;;;9.80;99.90;;;;;;5065068;28;20414;-72
2022/05/02 06:13:55;;;;;;;35.10;20.93;;;9.90;99.90;;;;;;5066935;28;20479;-71
2022/05/02 06:19:14;;;;;;;34.00;20.70;;;10.10;99.90;;;;;;5063621;28;20982;-72
2022/05/02 06:21:42;;;;;;;26.53;19.80;;;10.10;99.90;;;;;;5067396;28;20402;-72
2022/05/02 06:24:11;;;;;;;29.90;20.93;;;10.40;99.90;;;;;;5065997;28;20536;-71
2022/05/02 06:26:38;;;;;;;28.63;20.57;;;10.30;99.90;;;;;;5060910;28;20915;-71
2022/05/02 06:29:09;;;;;;;24.47;19.73;;;10.30;99.90;;;;;;5065605;28;20537;-72
2022/05/02 06:31:45;;;;;;;28.90;19.40;;;10.40;99.90;;;;;;5064631;28;20434;-73
2022/05/02 06:34:13;;;;;;;25.13;19.37;;;10.50;99.90;;;;;;5067284;28;20968;-71
2022/05/02 06:37:07;;;;;;;27.53;20.00;;;10.50;99.90;;;;;;5061931;28;20510;-70
2022/05/02 06:39:56;;;;;;;30.67;19.60;;;10.70;99.90;;;;;;5059475;28;20576;-72
2022/05/02 06:42:35;;;;;;;25.60;20.00;;;10.90;99.90;;;;;;5062835;28;20434;-72
2022/05/02 06:45:08;;;;;;;27.30;18.43;;;11.10;99.90;;;;;;5065448;28;20434;-72
2022/05/02 06:48:04;;;;;;;26.73;18.47;;;11.30;99.90;;;;;;5067219;28;20881;-74
2022/05/02 06:50:32;;;;;;;24.30;19.30;;;11.60;99.90;;;;;;5065962;28;20419;-73
2022/05/02 06:53:25;;;;;;;28.20;19.27;;;12.00;99.90;;;;;;5065954;28;20998;-73
2022/05/02 06:56:09;;;;;;;26.37;19.60;;;12.20;99.90;;;;;;5059263;28;20409;-73
2022/05/02 06:58:54;;;;;;;25.87;19.37;;;12.30;99.90;;;;;;5066415;28;20533;-73
2022/05/02 07:01:35;;;;;;;26.57;18.70;;;12.40;99.90;;;;;;5064519;28;20430;-72
2022/05/02 07:04:29;;;;;;;23.17;19.03;;;12.60;99.90;;;;;;5054973;28;20454;-73
2022/05/02 07:07:10;;;;;;;25.20;18.93;;;12.80;99.90;;;;;;5064651;28;20437;-72
2022/05/02 07:09:44;;;;;;;29.90;19.10;;;12.80;99.90;;;;;;5051330;28;20458;-71
2022/05/02 07:12:16;;;;;;;22.53;17.87;;;13.00;99.90;;;;;;5057625;28;20806;-73
2022/05/02 07:15:08;;;;;;;20.00;16.97;;;13.10;99.90;;;;;;5058918;28;20504;-72
2022/05/02 07:17:43;;;;;;;22.50;17.70;;;13.30;99.90;;;;;;5062561;28;20798;-74
2022/05/02 07:20:32;;;;;;;22.73;18.60;;;13.70;99.90;;;;;;5070438;28;20815;-75
2022/05/02 07:23:16;;;;;;;26.60;20.07;;;14.00;99.90;;;;;;5066921;28;20956;-73
2022/05/02 07:25:50;;;;;;;25.27;18.30;;;14.10;99.90;;;;;;5068926;28;20575;-71
2022/05/02 07:28:42;;;;;;;23.13;18.00;;;14.10;99.90;;;;;;5069632;28;20555;-73
2022/05/02 07:31:09;;;;;;;25.77;20.60;;;14.30;99.90;;;;;;5065831;28;20443;-74
2022/05/02 07:33:39;;;;;;;25.27;18.93;;;14.40;99.90;;;;;;5067744;28;20446;-74
2022/05/02 07:36:05;;;;;;;25.43;18.93;;;14.50;99.90;;;;;;5060218;28;20423;-73
2022/05/02 07:38:33;;;;;;;27.43;19.10;;;14.80;99.90;;;;;;5068974;28;20451;-73
2022/05/02 07:43:49;;;;;;;23.40;18.90;;;16.30;99.90;;;;;;5069626;28;20453;-74
2022/05/02 07:46:23;;;;;;;22.03;18.33;;;17.10;99.90;;;;;;5069224;28;20806;-74
2022/05/02 07:48:51;;;;;;;20.20;18.03;;;17.70;99.90;;;;;;5069259;28;20449;-73
2022/05/02 07:51:19;;;;;;;25.33;20.43;;;18.00;99.90;;;;;;5062423;28;20434;-74
2022/05/02 07:53:45;;;;;;;24.70;20.87;;;18.00;99.90;;;;;;5068276;28;20458;-73
2022/05/02 07:56:12;;;;;;;24.23;21.60;;;18.00;99.90;;;;;;5067676;28;20411;-73
2022/05/02 07:58:41;;;;;;;23.90;20.80;;;18.30;99.90;;;;;;5070927;28;20501;-73
2022/05/02 08:01:07;;;;;;;24.97;20.20;;;18.70;99.90;;;;;;5068620;28;20406;-73
2022/05/02 08:03:33;;;;;;;23.87;20.67;;;19.30;99.90;;;;;;5067959;28;20424;-73
2022/05/02 08:06:11;;;;;;;25.13;20.17;;;19.50;99.90;;;;;;5069947;28;20176;-73
2022/05/02 08:09:01;;;;;;;22.60;18.90;;;19.90;99.90;;;;;;5067346;28;20696;-73
2022/05/02 08:11:34;;;;;;;21.97;16.60;;;20.50;99.90;;;;;;5067811;28;20452;-75
2022/05/02 08:14:12;;;;;;;21.80;18.10;;;20.40;99.90;;;;;;5068706;28;20450;-74
2022/05/02 08:16:46;;;;;;;20.80;17.27;;;20.20;99.90;;;;;;5067045;28;20414;-75
2022/05/02 08:19:37;;;;;;;18.13;16.23;;;20.20;99.90;;;;;;5067010;28;20466;-74
2022/05/02 08:28:02;;;;;;;21.40;15.37;;;22.30;99.90;;;;;;5067953;28;20485;-73
2022/05/02 08:30:34;;;;;;;17.80;15.03;;;23.50;98.90;;;;;;5063963;28;20469;-73
2022/05/02 08:33:06;;;;;;;19.27;15.00;;;24.60;94.90;;;;;;5061994;28;20461;-74
2022/05/02 08:36:03;;;;;;;16.97;15.17;;;25.20;93.00;;;;;;5077062;28;20819;-74
2022/05/02 08:39:00;;;;;;;22.90;16.23;;;26.20;85.40;;;;;;5053956;28;20477;-74
2022/05/02 08:41:30;;;;;;;16.43;14.73;;;26.70;79.20;;;;;;5066770;28;20417;-75
2022/05/02 08:44:04;;;;;;;18.90;15.90;;;27.30;74.30;;;;;;5066395;28;20277;-72
2022/05/02 08:46:58;;;;;;;21.53;14.97;;;27.60;70.70;;;;;;5067345;28;20178;-72
2022/05/02 08:49:40;;;;;;;19.50;15.83;;;27.70;64.50;;;;;;5067454;28;20172;-73
2022/05/02 08:52:43;;;;;;;17.83;15.93;;;27.70;61.90;;;;;;5068907;28;20172;-72
2022/05/02 08:55:27;;;;;;;20.93;14.93;;;28.00;63.60;;;;;;5067858;28;20188;-72
2022/05/02 08:58:20;;;;;;;22.83;14.05;;;27.90;59.00;;;;;;5068199;28;20203;-73
2022/05/02 09:01:02;;;;;;;16.33;14.05;;;27.80;53.50;;;;;;5067830;28;21230;-72
2022/05/02 09:03:45;;;;;;;16.42;13.65;;;28.10;52.70;;;;;;5067492;28;20222;-72
2022/05/02 09:06:23;;;;;;;13.82;12.38;;;28.40;52.80;;;;;;5065919;28;20534;-73
2022/05/02 09:09:18;;;;;;;14.40;11.40;;;29.30;53.30;;;;;;5064416;28;20178;-72
2022/05/02 09:12:02;;;;;;;13.07;11.43;;;29.40;53.50;;;;;;5064418;28;20673;-71
2022/05/02 09:15:04;;;;;;;14.20;11.73;;;29.50;53.50;;;;;;5066284;28;20214;-72
2022/05/02 09:18:11;;;;;;;15.63;11.60;;;29.30;53.40;;;;;;5062280;28;20283;-73
2022/05/02 09:21:06;;;;;;;14.75;11.70;;;29.40;52.10;;;;;;5064070;28;20217;-72
2022/05/02 09:23:33;;;;;;;13.25;11.77;;;29.70;49.40;;;;;;5066507;28;20271;-72
2022/05/02 09:26:31;;;;;;;14.43;12.20;;;29.30;53.30;;;;;;5065791;28;20698;-73
2022/05/02 09:29:34;;;;;;;13.43;12.10;;;28.50;52.80;;;;;;5066998;28;20194;-72
2022/05/02 09:32:18;;;;;;;14.80;13.30;;;28.60;52.90;;;;;;5060849;28;20258;-72
2022/05/02 09:35:02;;;;;;;16.67;12.23;;;28.60;53.00;;;;;;5067342;28;20604;-72
2022/05/02 09:37:55;;;;;;;14.20;12.70;;;29.20;53.20;;;;;;5064132;28;20298;-72
2022/05/02 09:40:29;;;;;;;13.18;11.57;;;30.00;43.20;;;;;;5054187;28;20186;-73
2022/05/02 09:43:08;;;;;;;12.27;10.98;;;30.30;42.40;;;;;;5066205;28;20263;-72
2022/05/02 09:49:34;;;;;;;15.50;11.15;;;31.30;36.10;;;;;;5066172;28;20714;-72
2022/05/02 09:52:17;;;;;;;12.10;10.90;;;32.00;32.60;;;;;;5058635;28;20629;-72
2022/05/02 09:58:35;;;;;;;13.15;11.15;;;32.80;26.50;;;;;;5065756;28;20211;-73
2022/05/02 10:01:15;;;;;;;11.52;10.15;;;32.60;25.40;;;;;;5057403;28;20164;-73
2022/05/02 10:04:19;;;;;;;12.13;10.85;;;32.50;25.70;;;;;;5067207;28;20198;-74
2022/05/02 10:06:53;;;;;;;13.57;11.15;;;33.20;23.80;;;;;;5074816;28;20248;-74
2022/05/02 10:09:49;;;;;;;15.05;11.60;;;33.60;21.50;;;;;;5065620;28;20176;-73
2022/05/02 10:12:34;;;;;;;12.82;11.52;;;34.10;18.50;;;;;;5066916;28;20629;-74
2022/05/02 10:15:37;;;;;;;15.27;11.82;;;34.00;17.80;;;;;;5063945;28;20686;-74
2022/05/02 10:18:28;;;;;;;12.45;10.52;;;33.80;16.40;;;;;;5059175;28;20188;-75
2022/05/02 10:21:23;;;;;;;13.20;11.35;;;33.50;16.40;;;;;;5063857;28;20233;-74
2022/05/02 10:24:16;;;;;;;17.40;11.30;;;33.40;16.70;;;;;;5062050;28;20183;-74
2022/05/02 10:26:55;;;;;;;12.40;11.20;;;33.70;14.10;;;;;;5065919;28;20620;-74
2022/05/02 10:29:36;;;;;;;12.00;10.77;;;33.40;14.90;;;;;;5061985;28;20559;-73
2022/05/02 10:32:10;;;;;;;16.05;12.73;;;33.40;13.70;;;;;;5065551;28;20174;-73
2022/05/02 10:34:37;;;;;;;13.38;11.68;;;33.40;12.20;;;;;;5066501;28;20207;-74
2022/05/02 10:37:07;;;;;;;12.40;11.18;;;34.20;11.70;;;;;;5068085;28;20179;-74
2022/05/02 10:39:38;;;;;;;14.73;11.52;;;35.10;6.30;;;;;;5066742;28;20194;-74
2022/05/02 10:42:06;;;;;;;13.13;11.75;;;35.10;5.20;;;;;;5060412;28;20164;-74
2022/05/02 10:44:57;;;;;;;14.05;11.80;;;35.10;2.40;;;;;;5067028;28;20270;-73
2022/05/02 10:47:27;;;;;;;13.90;11.95;;;34.90;1.00;;;;;;5064298;28;20563;-74
2022/05/02 10:50:07;;;;;;;15.25;12.00;;;34.60;4.00;;;;;;5069495;28;20182;-74
2022/05/02 10:52:39;;;;;;;13.65;12.23;;;34.60;2.80;;;;;;5067384;28;20557;-74
2022/05/02 10:55:12;;;;;;;12.65;11.38;;;35.10;1.00;;;;;;5067958;28;20803;-73
2022/05/02 10:58:05;;;;;;;13.50;11.80;;;35.50;1.00;;;;;;5067286;28;20301;-73
2022/05/02 11:00:31;;;;;;;13.13;11.65;;;34.90;1.00;;;;;;5062531;28;20289;-73
2022/05/02 11:03:35;;;;;;;17.17;12.05;;;34.70;1.00;;;;;;5065566;28;20185;-74
2022/05/02 11:06:31;;;;;;;14.13;11.00;;;34.90;1.00;;;;;;5061445;28;20382;-73
2022/05/02 11:09:06;;;;;;;13.07;11.82;;;35.30;1.00;;;;;;5071643;28;20215;-73
2022/05/02 11:11:48;;;;;;;13.82;12.18;;;34.40;1.00;;;;;;5068567;28;20290;-73
2022/05/02 11:14:28;;;;;;;13.85;12.10;;;34.40;1.00;;;;;;5070948;28;20225;-73
2022/05/02 11:17:09;;;;;;;17.13;12.23;;;34.40;1.00;;;;;;5066430;28;20756;-72
2022/05/02 11:23:04;;;;;;;13.65;11.50;;;35.20;1.00;;;;;;5068251;28;20186;-73
2022/05/02 11:25:39;;;;;;;11.77;10.48;;;36.20;1.00;;;;;;5070657;28;20234;-74
2022/05/02 11:28:23;;;;;;;14.32;11.13;;;35.00;1.00;;;;;;5068394;28;20179;-74
2022/05/02 11:31:24;;;;;;;13.88;11.07;;;33.30;1.00;;;;;;5062988;28;20176;-73
2022/05/02 11:34:02;;;;;;;15.38;10.57;;;31.60;3.40;;;;;;5047000;28;20316;-73
2022/05/02 11:36:32;;;;;;;16.65;11.15;;;32.00;3.90;;;;;;5070905;28;20184;-74
2022/05/02 11:39:08;;;;;;;12.90;11.60;;;33.30;1.00;;;;;;5062896;28;20329;-73
2022/05/02 11:41:39;;;;;;;13.90;10.73;;;33.70;1.00;;;;;;5060471;28;20175;-73
2022/05/02 11:44:10;;;;;;;16.13;11.80;;;32.70;2.20;;;;;;5077878;28;20239;-72
2022/05/02 11:46:59;;;;;;;14.10;11.70;;;31.00;7.10;;;;;;5067510;28;20261;-72
2022/05/02 11:50:00;;;;;;;12.27;10.98;;;30.40;5.80;;;;;;5061404;28;20198;-74
2022/05/02 11:52:36;;;;;;;12.32;11.13;;;31.10;8.10;;;;;;5051298;28;20245;-72
2022/05/02 11:55:05;;;;;;;16.88;11.45;;;33.10;1.00;;;;;;5069177;28;20657;-73
2022/05/02 11:57:42;;;;;;;13.15;10.77;;;34.50;1.00;;;;;;5067851;28;20692;-73
2022/05/02 12:00:15;;;;;;;15.15;11.15;;;35.10;1.00;;;;;;5068880;28;20582;-74
2022/05/02 12:02:53;;;;;;;13.82;11.32;;;34.60;1.00;;;;;;5068520;28;20172;-73
2022/05/02 12:05:23;;;;;;;12.75;11.45;;;32.80;1.00;;;;;;5068761;28;20187;-72
2022/05/02 12:08:03;;;;;;;13.38;11.95;;;30.90;1.00;;;;;;5067930;28;20724;-73
2022/05/02 12:10:46;;;;;;;14.30;11.52;;;29.30;4.20;;;;;;5069554;28;20252;-73
2022/05/02 12:13:17;;;;;;;13.55;11.02;;;28.30;10.50;;;;;;5061139;28;20516;-73
2022/05/02 12:15:59;;;;;;;14.13;11.40;;;27.50;13.00;;;;;;5068771;28;20204;-73
2022/05/02 12:18:51;;;;;;;12.43;11.00;;;27.80;13.60;;;;;;5067461;28;20279;-73
2022/05/02 12:21:20;;;;;;;14.83;11.00;;;29.10;9.00;;;;;;5069255;28;20646;-73
2022/05/02 12:23:46;;;;;;;14.00;11.30;;;29.20;10.00;;;;;;5068050;28;20207;-72
2022/05/02 12:26:18;;;;;;;11.37;10.17;;;28.60;11.30;;;;;;5067954;28;20179;-73
2022/05/02 12:28:47;;;;;;;12.30;11.00;;;28.30;13.20;;;;;;5059812;28;20195;-72
2022/05/02 12:31:26;;;;;;;13.88;11.25;;;29.80;9.60;;;;;;5068700;28;20203;-73
2022/05/02 12:34:06;;;;;;;13.88;10.95;;;31.60;2.60;;;;;;5065082;28;20213;-73
2022/05/02 12:36:47;;;;;;;15.50;10.60;;;32.10;1.00;;;;;;5060616;28;20184;-74
2022/05/02 12:39:26;;;;;;;11.00;9.90;;;31.70;1.00;;;;;;5074608;28;20203;-74
2022/05/02 12:42:13;;;;;;;14.60;10.43;;;33.10;1.00;;;;;;5065835;28;20701;-73
2022/05/02 12:45:03;;;;;;;11.65;10.45;;;34.10;1.00;;;;;;5069489;28;20195;-73
2022/05/02 12:48:06;;;;;;;11.60;10.40;;;33.30;1.00;;;;;;5058893;28;20864;-72
2022/05/02 12:50:46;;;;;;;12.68;10.13;;;32.60;1.00;;;;;;5065322;28;20184;-74
2022/05/02 12:56:05;;;;;;;11.02;9.77;;;31.80;1.00;;;;;;5058734;28;20236;-74
2022/05/02 13:01:18;;;;;;;14.90;10.10;;;32.60;1.00;;;;;;5067710;28;20267;-74
2022/05/02 13:03:52;;;;;;;11.40;9.70;;;31.00;1.00;;;;;;5065240;28;20180;-73
2022/05/02 13:06:19;;;;;;;15.35;10.80;;;30.80;1.00;;;;;;5069684;28;20667;-73
2022/05/02 13:08:45;;;;;;;11.15;9.95;;;30.00;2.80;;;;;;5068123;28;20199;-74
2022/05/02 13:11:21;;;;;;;16.30;10.05;;;29.50;4.20;;;;;;5067759;28;20477;-73
2022/05/02 13:13:50;;;;;;;14.30;10.18;;;29.30;4.00;;;;;;5067706;28;20287;-73
2022/05/02 13:16:25;;;;;;;12.93;9.40;;;29.00;5.90;;;;;;5068209;28;20230;-73
2022/05/02 13:18:51;;;;;;;10.55;9.48;;;29.10;6.10;;;;;;5062580;28;20203;-72
2022/05/02 13:21:18;;;;;;;10.95;8.98;;;31.30;1.00;;;;;;5062855;28;20190;-72
2022/05/02 13:23:49;;;;;;;11.75;9.13;;;34.70;1.00;;;;;;5065729;28;20197;-73
2022/05/02 13:26:37;;;;;;;10.27;9.27;;;34.80;1.00;;;;;;5064824;28;20202;-73
2022/05/02 13:29:08;;;;;;;9.05;8.10;;;34.60;1.00;;;;;;5060120;28;20690;-73
2022/05/02 13:31:52;;;;;;;8.98;8.05;;;35.00;1.00;;;;;;5067598;28;20184;-73
2022/05/02 13:34:24;;;;;;;10.18;9.10;;;34.70;1.00;;;;;;5067509;28;20271;-72
2022/05/02 13:36:58;;;;;;;10.68;8.50;;;33.40;1.00;;;;;;5068036;28;20250;-73
2022/05/02 13:39:31;;;;;;;9.57;8.63;;;32.20;1.00;;;;;;5066431;28;20207;-72
2022/05/02 13:42:11;;;;;;;9.85;7.90;;;31.50;1.00;;;;;;5065407;28;20168;-72